sensor_id;sensor_type;location;lat;lon;timestamp;P1;durP1;ratioP1;P2;durP2;ratioP2
50821;SDS011;36794;51.212;6.980;2023-07-16T00:00:50;3.60;;;1.70;;
50821;SDS011;36794;51.212;6.980;2023-07-16T00:03:16;3.50;;;2.00;;
50821;SDS011;36794;51.212;6.980;2023-07-16T00:05:42;4.60;;;2.20;;
50821;SDS011;36794;51.212;6.980;2023-07-16T00:08:08;3.13;;;1.83;;
50821;SDS011;36794;51.212;6.980;2023-07-16T00:10:34;4.53;;;1.77;;
50821;SDS011;36794;51.212;6.980;2023-07-16T00:13:01;5.85;;;1.92;;
50821;SDS011;36794;51.212;6.980;2023-07-16T00:15:27;7.50;;;1.70;;
50821;SDS011;36794;51.212;6.980;2023-07-16T00:17:53;6.65;;;1.67;;
50821;SDS011;36794;51.212;6.980;2023-07-16T00:20:20;7.72;;;1.67;;
50821;SDS011;36794;51.212;6.980;2023-07-16T00:22:46;6.43;;;1.63;;
50821;SDS011;36794;51.212;6.980;2023-07-16T00:25:12;5.40;;;1.67;;
50821;SDS011;36794;51.212;6.980;2023-07-16T00:27:38;9.02;;;1.70;;
50821;SDS011;36794;51.212;6.980;2023-07-16T00:30:04;5.30;;;1.58;;
50821;SDS011;36794;51.212;6.980;2023-07-16T00:32:30;3.70;;;1.27;;
50821;SDS011;36794;51.212;6.980;2023-07-16T00:34:56;4.57;;;1.58;;
50821;SDS011;36794;51.212;6.980;2023-07-16T00:37:22;6.15;;;1.83;;
50821;SDS011;36794;51.212;6.980;2023-07-16T00:39:48;3.55;;;1.35;;
50821;SDS011;36794;51.212;6.980;2023-07-16T00:42:14;10.50;;;1.70;;
50821;SDS011;36794;51.212;6.980;2023-07-16T00:44:40;5.95;;;1.77;;
50821;SDS011;36794;51.212;6.980;2023-07-16T00:47:06;5.82;;;1.50;;
50821;SDS011;36794;51.212;6.980;2023-07-16T00:49:32;4.90;;;1.90;;
50821;SDS011;36794;51.212;6.980;2023-07-16T00:51:58;6.00;;;1.27;;
50821;SDS011;36794;51.212;6.980;2023-07-16T00:54:24;12.68;;;2.10;;
50821;SDS011;36794;51.212;6.980;2023-07-16T00:56:51;6.63;;;1.98;;
50821;SDS011;36794;51.212;6.980;2023-07-16T00:59:17;4.80;;;1.80;;
50821;SDS011;36794;51.212;6.980;2023-07-16T01:01:43;6.70;;;1.63;;
50821;SDS011;36794;51.212;6.980;2023-07-16T01:04:09;8.38;;;1.80;;
50821;SDS011;36794;51.212;6.980;2023-07-16T01:06:35;7.15;;;2.00;;
50821;SDS011;36794;51.212;6.980;2023-07-16T01:09:15;9.10;;;1.80;;
50821;SDS011;36794;51.212;6.980;2023-07-16T01:11:42;5.72;;;1.63;;
50821;SDS011;36794;51.212;6.980;2023-07-16T01:14:08;7.75;;;1.90;;
50821;SDS011;36794;51.212;6.980;2023-07-16T01:16:35;4.05;;;1.60;;
50821;SDS011;36794;51.212;6.980;2023-07-16T01:19:01;8.55;;;1.67;;
50821;SDS011;36794;51.212;6.980;2023-07-16T01:21:35;7.78;;;1.95;;
50821;SDS011;36794;51.212;6.980;2023-07-16T01:31:35;6.55;;;1.50;;
50821;SDS011;36794;51.212;6.980;2023-07-16T01:34:01;7.13;;;1.95;;
50821;SDS011;36794;51.212;6.980;2023-07-16T01:36:30;5.57;;;1.63;;
50821;SDS011;36794;51.212;6.980;2023-07-16T01:38:57;4.65;;;2.17;;
50821;SDS011;36794;51.212;6.980;2023-07-16T01:41:23;6.53;;;1.85;;
50821;SDS011;36794;51.212;6.980;2023-07-16T01:43:49;6.40;;;1.70;;
50821;SDS011;36794;51.212;6.980;2023-07-16T01:46:15;8.32;;;1.70;;
50821;SDS011;36794;51.212;6.980;2023-07-16T01:48:41;9.90;;;1.70;;
50821;SDS011;36794;51.212;6.980;2023-07-16T01:51:07;7.65;;;1.67;;
50821;SDS011;36794;51.212;6.980;2023-07-16T01:53:34;8.68;;;1.80;;
50821;SDS011;36794;51.212;6.980;2023-07-16T01:56:03;7.63;;;1.52;;
50821;SDS011;36794;51.212;6.980;2023-07-16T01:58:29;7.82;;;1.70;;
50821;SDS011;36794;51.212;6.980;2023-07-16T02:00:54;10.07;;;2.10;;
50821;SDS011;36794;51.212;6.980;2023-07-16T02:03:20;9.43;;;1.70;;
50821;SDS011;36794;51.212;6.980;2023-07-16T02:05:47;9.77;;;1.63;;
50821;SDS011;36794;51.212;6.980;2023-07-16T02:08:13;7.93;;;1.85;;
50821;SDS011;36794;51.212;6.980;2023-07-16T02:10:39;10.95;;;1.73;;
50821;SDS011;36794;51.212;6.980;2023-07-16T02:13:05;7.95;;;1.58;;
50821;SDS011;36794;51.212;6.980;2023-07-16T02:15:31;6.53;;;1.70;;
50821;SDS011;36794;51.212;6.980;2023-07-16T02:17:57;5.90;;;1.40;;
50821;SDS011;36794;51.212;6.980;2023-07-16T02:20:22;11.82;;;1.85;;
50821;SDS011;36794;51.212;6.980;2023-07-16T02:22:49;6.03;;;1.70;;
50821;SDS011;36794;51.212;6.980;2023-07-16T02:25:14;5.30;;;1.60;;
50821;SDS011;36794;51.212;6.980;2023-07-16T02:27:40;8.38;;;1.65;;
50821;SDS011;36794;51.212;6.980;2023-07-16T02:30:06;10.65;;;1.90;;
50821;SDS011;36794;51.212;6.980;2023-07-16T02:32:33;6.80;;;2.00;;
50821;SDS011;36794;51.212;6.980;2023-07-16T02:34:59;7.55;;;1.90;;
50821;SDS011;36794;51.212;6.980;2023-07-16T02:37:25;7.90;;;1.85;;
50821;SDS011;36794;51.212;6.980;2023-07-16T02:39:51;10.18;;;2.00;;
50821;SDS011;36794;51.212;6.980;2023-07-16T02:42:17;6.45;;;1.45;;
50821;SDS011;36794;51.212;6.980;2023-07-16T02:44:43;5.88;;;1.33;;
50821;SDS011;36794;51.212;6.980;2023-07-16T02:47:12;7.07;;;1.63;;
50821;SDS011;36794;51.212;6.980;2023-07-16T02:49:38;9.05;;;1.90;;
50821;SDS011;36794;51.212;6.980;2023-07-16T02:52:05;11.40;;;1.63;;
50821;SDS011;36794;51.212;6.980;2023-07-16T02:54:31;5.07;;;1.77;;
50821;SDS011;36794;51.212;6.980;2023-07-16T02:56:57;12.63;;;2.10;;
50821;SDS011;36794;51.212;6.980;2023-07-16T02:59:23;10.05;;;1.45;;
50821;SDS011;36794;51.212;6.980;2023-07-16T03:01:50;11.57;;;2.30;;
50821;SDS011;36794;51.212;6.980;2023-07-16T03:04:16;4.85;;;1.40;;
50821;SDS011;36794;51.212;6.980;2023-07-16T03:06:42;3.97;;;1.50;;
50821;SDS011;36794;51.212;6.980;2023-07-16T03:09:08;8.95;;;1.50;;
50821;SDS011;36794;51.212;6.980;2023-07-16T03:11:34;7.10;;;1.60;;
50821;SDS011;36794;51.212;6.980;2023-07-16T03:14:00;9.05;;;1.30;;
50821;SDS011;36794;51.212;6.980;2023-07-16T03:16:26;5.38;;;1.67;;
50821;SDS011;36794;51.212;6.980;2023-07-16T03:18:52;4.93;;;1.52;;
50821;SDS011;36794;51.212;6.980;2023-07-16T03:21:18;8.00;;;1.90;;
50821;SDS011;36794;51.212;6.980;2023-07-16T03:23:44;6.10;;;1.75;;
50821;SDS011;36794;51.212;6.980;2023-07-16T03:26:10;6.45;;;1.75;;
50821;SDS011;36794;51.212;6.980;2023-07-16T03:28:36;6.28;;;1.75;;
50821;SDS011;36794;51.212;6.980;2023-07-16T03:31:02;8.27;;;1.95;;
50821;SDS011;36794;51.212;6.980;2023-07-16T03:33:28;7.22;;;1.65;;
50821;SDS011;36794;51.212;6.980;2023-07-16T03:35:54;7.13;;;1.63;;
50821;SDS011;36794;51.212;6.980;2023-07-16T03:38:20;7.70;;;1.65;;
50821;SDS011;36794;51.212;6.980;2023-07-16T03:40:47;7.70;;;1.55;;
50821;SDS011;36794;51.212;6.980;2023-07-16T03:43:13;4.50;;;1.73;;
50821;SDS011;36794;51.212;6.980;2023-07-16T03:45:39;6.50;;;1.40;;
50821;SDS011;36794;51.212;6.980;2023-07-16T03:48:05;7.53;;;1.80;;
50821;SDS011;36794;51.212;6.980;2023-07-16T03:50:31;7.32;;;1.60;;
50821;SDS011;36794;51.212;6.980;2023-07-16T03:52:57;10.95;;;1.70;;
50821;SDS011;36794;51.212;6.980;2023-07-16T03:55:23;9.73;;;2.10;;
50821;SDS011;36794;51.212;6.980;2023-07-16T03:57:49;9.93;;;1.88;;
50821;SDS011;36794;51.212;6.980;2023-07-16T04:00:15;8.70;;;2.40;;
50821;SDS011;36794;51.212;6.980;2023-07-16T04:02:41;7.97;;;1.95;;
50821;SDS011;36794;51.212;6.980;2023-07-16T04:05:07;5.65;;;1.60;;
50821;SDS011;36794;51.212;6.980;2023-07-16T04:07:33;7.38;;;1.90;;
50821;SDS011;36794;51.212;6.980;2023-07-16T04:09:59;5.50;;;1.50;;
50821;SDS011;36794;51.212;6.980;2023-07-16T04:12:25;4.75;;;1.55;;
50821;SDS011;36794;51.212;6.980;2023-07-16T04:14:56;8.90;;;1.38;;
50821;SDS011;36794;51.212;6.980;2023-07-16T04:17:22;14.77;;;1.95;;
50821;SDS011;36794;51.212;6.980;2023-07-16T04:19:48;6.55;;;1.70;;
50821;SDS011;36794;51.212;6.980;2023-07-16T04:22:14;6.50;;;1.50;;
50821;SDS011;36794;51.212;6.980;2023-07-16T04:24:40;11.50;;;1.88;;
50821;SDS011;36794;51.212;6.980;2023-07-16T04:27:06;12.10;;;1.95;;
50821;SDS011;36794;51.212;6.980;2023-07-16T04:29:32;7.13;;;1.63;;
50821;SDS011;36794;51.212;6.980;2023-07-16T04:31:58;12.93;;;1.80;;
50821;SDS011;36794;51.212;6.980;2023-07-16T04:34:24;13.63;;;2.22;;
50821;SDS011;36794;51.212;6.980;2023-07-16T04:36:50;5.05;;;1.33;;
50821;SDS011;36794;51.212;6.980;2023-07-16T04:39:16;4.70;;;1.60;;
50821;SDS011;36794;51.212;6.980;2023-07-16T04:41:42;9.43;;;1.95;;
50821;SDS011;36794;51.212;6.980;2023-07-16T04:44:08;10.65;;;1.50;;
50821;SDS011;36794;51.212;6.980;2023-07-16T04:46:34;8.80;;;2.05;;
50821;SDS011;36794;51.212;6.980;2023-07-16T04:49:01;13.55;;;2.20;;
50821;SDS011;36794;51.212;6.980;2023-07-16T04:51:26;12.93;;;2.47;;
50821;SDS011;36794;51.212;6.980;2023-07-16T04:53:52;6.28;;;1.88;;
50821;SDS011;36794;51.212;6.980;2023-07-16T04:56:18;7.88;;;1.65;;
50821;SDS011;36794;51.212;6.980;2023-07-16T04:58:44;9.68;;;2.00;;
50821;SDS011;36794;51.212;6.980;2023-07-16T05:01:10;6.47;;;1.95;;
50821;SDS011;36794;51.212;6.980;2023-07-16T05:03:36;8.05;;;2.00;;
50821;SDS011;36794;51.212;6.980;2023-07-16T05:06:02;9.00;;;2.15;;
50821;SDS011;36794;51.212;6.980;2023-07-16T05:08:29;10.57;;;2.22;;
50821;SDS011;36794;51.212;6.980;2023-07-16T05:10:55;9.27;;;2.10;;
50821;SDS011;36794;51.212;6.980;2023-07-16T05:13:21;12.43;;;1.67;;
50821;SDS011;36794;51.212;6.980;2023-07-16T05:15:47;17.67;;;2.80;;
50821;SDS011;36794;51.212;6.980;2023-07-16T05:18:13;7.93;;;2.13;;
50821;SDS011;36794;51.212;6.980;2023-07-16T05:20:39;16.40;;;2.88;;
50821;SDS011;36794;51.212;6.980;2023-07-16T05:23:05;7.53;;;2.10;;
50821;SDS011;36794;51.212;6.980;2023-07-16T05:25:31;5.03;;;2.03;;
50821;SDS011;36794;51.212;6.980;2023-07-16T05:27:57;11.40;;;2.10;;
50821;SDS011;36794;51.212;6.980;2023-07-16T05:30:23;13.05;;;2.50;;
50821;SDS011;36794;51.212;6.980;2023-07-16T05:32:49;11.80;;;2.38;;
50821;SDS011;36794;51.212;6.980;2023-07-16T05:35:14;10.75;;;2.45;;
50821;SDS011;36794;51.212;6.980;2023-07-16T05:37:40;10.90;;;2.50;;
50821;SDS011;36794;51.212;6.980;2023-07-16T05:40:07;9.45;;;2.40;;
50821;SDS011;36794;51.212;6.980;2023-07-16T05:42:35;9.77;;;2.97;;
50821;SDS011;36794;51.212;6.980;2023-07-16T05:45:01;8.68;;;2.50;;
50821;SDS011;36794;51.212;6.980;2023-07-16T05:47:27;7.45;;;2.90;;
50821;SDS011;36794;51.212;6.980;2023-07-16T05:49:53;13.05;;;2.92;;
50821;SDS011;36794;51.212;6.980;2023-07-16T05:52:19;10.43;;;2.92;;
50821;SDS011;36794;51.212;6.980;2023-07-16T05:54:45;12.60;;;2.92;;
50821;SDS011;36794;51.212;6.980;2023-07-16T05:57:11;12.80;;;2.80;;
50821;SDS011;36794;51.212;6.980;2023-07-16T05:59:37;11.45;;;3.00;;
50821;SDS011;36794;51.212;6.980;2023-07-16T06:02:04;7.55;;;2.58;;
50821;SDS011;36794;51.212;6.980;2023-07-16T06:04:30;8.48;;;2.92;;
50821;SDS011;36794;51.212;6.980;2023-07-16T06:06:56;12.60;;;3.15;;
50821;SDS011;36794;51.212;6.980;2023-07-16T06:09:22;10.73;;;2.78;;
50821;SDS011;36794;51.212;6.980;2023-07-16T06:11:48;11.43;;;3.15;;
50821;SDS011;36794;51.212;6.980;2023-07-16T06:14:15;10.98;;;3.13;;
50821;SDS011;36794;51.212;6.980;2023-07-16T06:16:41;12.27;;;3.90;;
50821;SDS011;36794;51.212;6.980;2023-07-16T06:19:07;9.57;;;3.03;;
50821;SDS011;36794;51.212;6.980;2023-07-16T06:21:33;12.90;;;3.80;;
50821;SDS011;36794;51.212;6.980;2023-07-16T06:23:59;10.73;;;3.60;;
50821;SDS011;36794;51.212;6.980;2023-07-16T06:26:25;8.15;;;3.15;;
50821;SDS011;36794;51.212;6.980;2023-07-16T06:28:51;13.35;;;3.80;;
50821;SDS011;36794;51.212;6.980;2023-07-16T06:31:17;8.70;;;3.65;;
50821;SDS011;36794;51.212;6.980;2023-07-16T06:33:43;12.98;;;4.50;;
50821;SDS011;36794;51.212;6.980;2023-07-16T06:36:11;12.50;;;3.90;;
50821;SDS011;36794;51.212;6.980;2023-07-16T06:38:37;12.00;;;4.18;;
50821;SDS011;36794;51.212;6.980;2023-07-16T06:41:03;10.00;;;4.15;;
50821;SDS011;36794;51.212;6.980;2023-07-16T06:43:29;8.95;;;3.40;;
50821;SDS011;36794;51.212;6.980;2023-07-16T06:45:55;11.93;;;3.85;;
50821;SDS011;36794;51.212;6.980;2023-07-16T06:48:21;11.65;;;3.92;;
50821;SDS011;36794;51.212;6.980;2023-07-16T06:50:47;8.75;;;3.97;;
50821;SDS011;36794;51.212;6.980;2023-07-16T06:53:13;12.65;;;3.88;;
50821;SDS011;36794;51.212;6.980;2023-07-16T06:55:39;20.38;;;4.07;;
50821;SDS011;36794;51.212;6.980;2023-07-16T06:58:05;11.18;;;3.75;;
50821;SDS011;36794;51.212;6.980;2023-07-16T07:00:31;13.52;;;4.68;;
50821;SDS011;36794;51.212;6.980;2023-07-16T07:02:58;9.38;;;3.97;;
50821;SDS011;36794;51.212;6.980;2023-07-16T07:05:23;12.45;;;4.00;;
50821;SDS011;36794;51.212;6.980;2023-07-16T07:07:49;11.65;;;3.80;;
50821;SDS011;36794;51.212;6.980;2023-07-16T07:10:15;10.38;;;4.20;;
50821;SDS011;36794;51.212;6.980;2023-07-16T07:12:41;13.85;;;4.60;;
50821;SDS011;36794;51.212;6.980;2023-07-16T07:15:07;12.52;;;4.25;;
50821;SDS011;36794;51.212;6.980;2023-07-16T07:17:34;10.00;;;4.38;;
50821;SDS011;36794;51.212;6.980;2023-07-16T07:20:00;10.43;;;3.83;;
50821;SDS011;36794;51.212;6.980;2023-07-16T07:22:26;10.23;;;4.00;;
50821;SDS011;36794;51.212;6.980;2023-07-16T07:24:52;12.07;;;4.30;;
50821;SDS011;36794;51.212;6.980;2023-07-16T07:27:18;9.20;;;3.78;;
50821;SDS011;36794;51.212;6.980;2023-07-16T07:29:44;14.18;;;4.70;;
50821;SDS011;36794;51.212;6.980;2023-07-16T07:32:11;13.50;;;3.80;;
50821;SDS011;36794;51.212;6.980;2023-07-16T07:34:40;11.23;;;4.32;;
50821;SDS011;36794;51.212;6.980;2023-07-16T07:37:06;10.82;;;4.15;;
50821;SDS011;36794;51.212;6.980;2023-07-16T07:39:33;14.23;;;4.85;;
50821;SDS011;36794;51.212;6.980;2023-07-16T07:41:59;8.20;;;4.00;;
50821;SDS011;36794;51.212;6.980;2023-07-16T07:44:25;9.75;;;4.40;;
50821;SDS011;36794;51.212;6.980;2023-07-16T07:46:51;13.93;;;4.40;;
50821;SDS011;36794;51.212;6.980;2023-07-16T07:49:17;9.15;;;3.95;;
50821;SDS011;36794;51.212;6.980;2023-07-16T07:51:43;13.20;;;4.10;;
50821;SDS011;36794;51.212;6.980;2023-07-16T07:54:09;12.18;;;4.55;;
50821;SDS011;36794;51.212;6.980;2023-07-16T07:56:35;12.95;;;4.45;;
50821;SDS011;36794;51.212;6.980;2023-07-16T07:59:01;12.07;;;4.53;;
50821;SDS011;36794;51.212;6.980;2023-07-16T08:01:27;12.18;;;4.88;;
50821;SDS011;36794;51.212;6.980;2023-07-16T08:03:54;8.98;;;4.10;;
50821;SDS011;36794;51.212;6.980;2023-07-16T08:06:20;14.95;;;4.70;;
50821;SDS011;36794;51.212;6.980;2023-07-16T08:08:47;12.18;;;4.07;;
50821;SDS011;36794;51.212;6.980;2023-07-16T08:11:13;9.95;;;3.72;;
50821;SDS011;36794;51.212;6.980;2023-07-16T08:13:39;12.15;;;4.63;;
50821;SDS011;36794;51.212;6.980;2023-07-16T08:16:05;7.00;;;3.95;;
50821;SDS011;36794;51.212;6.980;2023-07-16T08:18:31;10.25;;;3.75;;
50821;SDS011;36794;51.212;6.980;2023-07-16T08:20:57;13.27;;;3.97;;
50821;SDS011;36794;51.212;6.980;2023-07-16T08:23:23;11.25;;;4.20;;
50821;SDS011;36794;51.212;6.980;2023-07-16T08:25:49;7.88;;;4.05;;
50821;SDS011;36794;51.212;6.980;2023-07-16T08:28:16;10.32;;;3.65;;
50821;SDS011;36794;51.212;6.980;2023-07-16T08:30:42;10.00;;;4.00;;
50821;SDS011;36794;51.212;6.980;2023-07-16T08:33:08;16.17;;;4.22;;
50821;SDS011;36794;51.212;6.980;2023-07-16T08:35:34;8.50;;;3.78;;
50821;SDS011;36794;51.212;6.980;2023-07-16T08:38:00;11.02;;;3.78;;
50821;SDS011;36794;51.212;6.980;2023-07-16T08:40:26;8.98;;;3.80;;
50821;SDS011;36794;51.212;6.980;2023-07-16T08:42:52;12.93;;;4.07;;
50821;SDS011;36794;51.212;6.980;2023-07-16T08:45:19;9.15;;;3.50;;
50821;SDS011;36794;51.212;6.980;2023-07-16T08:47:48;8.05;;;3.45;;
50821;SDS011;36794;51.212;6.980;2023-07-16T08:50:14;6.70;;;3.40;;
50821;SDS011;36794;51.212;6.980;2023-07-16T08:52:40;9.73;;;3.60;;
50821;SDS011;36794;51.212;6.980;2023-07-16T08:55:06;12.55;;;3.53;;
50821;SDS011;36794;51.212;6.980;2023-07-16T08:57:32;8.50;;;3.08;;
50821;SDS011;36794;51.212;6.980;2023-07-16T08:59:58;6.78;;;3.22;;
50821;SDS011;36794;51.212;6.980;2023-07-16T09:02:24;11.73;;;3.67;;
50821;SDS011;36794;51.212;6.980;2023-07-16T09:04:50;7.82;;;2.90;;
50821;SDS011;36794;51.212;6.980;2023-07-16T09:07:16;9.18;;;3.05;;
50821;SDS011;36794;51.212;6.980;2023-07-16T09:09:42;9.60;;;3.55;;
50821;SDS011;36794;51.212;6.980;2023-07-16T09:12:12;10.23;;;3.22;;
50821;SDS011;36794;51.212;6.980;2023-07-16T09:14:40;7.45;;;3.38;;
50821;SDS011;36794;51.212;6.980;2023-07-16T09:17:07;7.57;;;3.00;;
50821;SDS011;36794;51.212;6.980;2023-07-16T09:19:32;7.88;;;2.88;;
50821;SDS011;36794;51.212;6.980;2023-07-16T09:21:58;6.53;;;2.67;;
50821;SDS011;36794;51.212;6.980;2023-07-16T09:24:24;11.50;;;2.75;;
50821;SDS011;36794;51.212;6.980;2023-07-16T09:26:54;6.68;;;2.50;;
50821;SDS011;36794;51.212;6.980;2023-07-16T09:29:21;14.32;;;2.45;;
50821;SDS011;36794;51.212;6.980;2023-07-16T09:31:53;7.68;;;2.60;;
50821;SDS011;36794;51.212;6.980;2023-07-16T09:34:20;10.52;;;2.70;;
50821;SDS011;36794;51.212;6.980;2023-07-16T09:36:49;11.57;;;2.78;;
50821;SDS011;36794;51.212;6.980;2023-07-16T09:39:19;6.65;;;2.20;;
50821;SDS011;36794;51.212;6.980;2023-07-16T09:41:48;6.40;;;2.58;;
50821;SDS011;36794;51.212;6.980;2023-07-16T09:44:15;6.75;;;2.70;;
50821;SDS011;36794;51.212;6.980;2023-07-16T09:46:41;8.50;;;2.40;;
50821;SDS011;36794;51.212;6.980;2023-07-16T09:49:08;6.57;;;2.60;;
50821;SDS011;36794;51.212;6.980;2023-07-16T09:51:37;8.50;;;2.65;;
50821;SDS011;36794;51.212;6.980;2023-07-16T09:54:04;7.40;;;2.40;;
50821;SDS011;36794;51.212;6.980;2023-07-16T09:56:49;4.93;;;2.60;;
50821;SDS011;36794;51.212;6.980;2023-07-16T09:59:16;6.60;;;2.20;;
50821;SDS011;36794;51.212;6.980;2023-07-16T10:01:43;6.63;;;2.35;;
50821;SDS011;36794;51.212;6.980;2023-07-16T10:04:11;5.93;;;2.20;;
50821;SDS011;36794;51.212;6.980;2023-07-16T10:06:39;4.65;;;1.90;;
50821;SDS011;36794;51.212;6.980;2023-07-16T10:09:13;6.90;;;2.70;;
50821;SDS011;36794;51.212;6.980;2023-07-16T10:11:39;7.65;;;2.42;;
50821;SDS011;36794;51.212;6.980;2023-07-16T10:14:07;5.25;;;2.83;;
50821;SDS011;36794;51.212;6.980;2023-07-16T10:16:37;7.30;;;2.78;;
50821;SDS011;36794;51.212;6.980;2023-07-16T10:19:04;10.00;;;2.25;;
50821;SDS011;36794;51.212;6.980;2023-07-16T10:21:36;7.93;;;2.55;;
50821;SDS011;36794;51.212;6.980;2023-07-16T10:24:05;8.23;;;2.47;;
50821;SDS011;36794;51.212;6.980;2023-07-16T10:26:43;6.80;;;2.63;;
50821;SDS011;36794;51.212;6.980;2023-07-16T10:29:09;5.18;;;2.03;;
50821;SDS011;36794;51.212;6.980;2023-07-16T10:31:35;6.20;;;2.53;;
50821;SDS011;36794;51.212;6.980;2023-07-16T10:34:04;5.70;;;2.38;;
50821;SDS011;36794;51.212;6.980;2023-07-16T10:36:36;6.00;;;2.60;;
50821;SDS011;36794;51.212;6.980;2023-07-16T10:39:05;4.57;;;2.35;;
50821;SDS011;36794;51.212;6.980;2023-07-16T10:41:31;11.07;;;2.90;;
50821;SDS011;36794;51.212;6.980;2023-07-16T10:44:01;7.13;;;2.53;;
50821;SDS011;36794;51.212;6.980;2023-07-16T10:46:27;6.97;;;2.45;;
50821;SDS011;36794;51.212;6.980;2023-07-16T10:48:53;6.68;;;2.45;;
50821;SDS011;36794;51.212;6.980;2023-07-16T10:51:24;5.15;;;2.10;;
50821;SDS011;36794;51.212;6.980;2023-07-16T10:53:51;5.20;;;2.33;;
50821;SDS011;36794;51.212;6.980;2023-07-16T10:56:17;4.53;;;2.20;;
50821;SDS011;36794;51.212;6.980;2023-07-16T10:58:45;6.13;;;2.58;;
50821;SDS011;36794;51.212;6.980;2023-07-16T11:01:11;6.30;;;2.38;;
50821;SDS011;36794;51.212;6.980;2023-07-16T11:03:37;10.85;;;2.40;;
50821;SDS011;36794;51.212;6.980;2023-07-16T11:06:06;7.90;;;2.88;;
50821;SDS011;36794;51.212;6.980;2023-07-16T11:08:32;5.20;;;2.33;;
50821;SDS011;36794;51.212;6.980;2023-07-16T11:10:58;5.22;;;2.17;;
50821;SDS011;36794;51.212;6.980;2023-07-16T11:13:25;5.97;;;2.40;;
50821;SDS011;36794;51.212;6.980;2023-07-16T11:15:51;4.32;;;2.22;;
50821;SDS011;36794;51.212;6.980;2023-07-16T11:18:17;5.28;;;2.42;;
50821;SDS011;36794;51.212;6.980;2023-07-16T11:20:43;6.68;;;2.55;;
50821;SDS011;36794;51.212;6.980;2023-07-16T11:23:10;5.75;;;2.47;;
50821;SDS011;36794;51.212;6.980;2023-07-16T11:25:36;7.45;;;2.55;;
50821;SDS011;36794;51.212;6.980;2023-07-16T11:28:02;8.00;;;2.35;;
50821;SDS011;36794;51.212;6.980;2023-07-16T11:30:28;8.05;;;2.42;;
50821;SDS011;36794;51.212;6.980;2023-07-16T11:32:54;6.50;;;2.55;;
50821;SDS011;36794;51.212;6.980;2023-07-16T11:35:20;6.40;;;2.70;;
50821;SDS011;36794;51.212;6.980;2023-07-16T11:37:46;5.53;;;2.45;;
50821;SDS011;36794;51.212;6.980;2023-07-16T11:40:16;5.72;;;2.50;;
50821;SDS011;36794;51.212;6.980;2023-07-16T11:42:43;4.70;;;2.28;;
50821;SDS011;36794;51.212;6.980;2023-07-16T11:45:16;6.25;;;2.45;;
50821;SDS011;36794;51.212;6.980;2023-07-16T11:47:43;7.05;;;2.70;;
50821;SDS011;36794;51.212;6.980;2023-07-16T11:50:09;7.00;;;2.30;;
50821;SDS011;36794;51.212;6.980;2023-07-16T11:52:35;6.88;;;2.28;;
50821;SDS011;36794;51.212;6.980;2023-07-16T11:55:01;6.15;;;2.60;;
50821;SDS011;36794;51.212;6.980;2023-07-16T11:57:30;5.85;;;2.47;;
50821;SDS011;36794;51.212;6.980;2023-07-16T11:59:56;5.82;;;2.67;;
50821;SDS011;36794;51.212;6.980;2023-07-16T12:02:22;6.90;;;2.42;;
50821;SDS011;36794;51.212;6.980;2023-07-16T12:04:50;7.78;;;2.65;;
50821;SDS011;36794;51.212;6.980;2023-07-16T12:07:29;6.05;;;2.40;;
50821;SDS011;36794;51.212;6.980;2023-07-16T12:09:55;6.55;;;2.30;;
50821;SDS011;36794;51.212;6.980;2023-07-16T12:12:21;5.32;;;2.30;;
50821;SDS011;36794;51.212;6.980;2023-07-16T12:14:47;6.20;;;2.78;;
50821;SDS011;36794;51.212;6.980;2023-07-16T12:17:13;6.88;;;2.20;;
50821;SDS011;36794;51.212;6.980;2023-07-16T12:19:39;7.72;;;2.40;;
50821;SDS011;36794;51.212;6.980;2023-07-16T12:22:05;5.18;;;2.50;;
50821;SDS011;36794;51.212;6.980;2023-07-16T12:24:31;8.10;;;2.50;;
50821;SDS011;36794;51.212;6.980;2023-07-16T12:26:57;6.55;;;2.50;;
50821;SDS011;36794;51.212;6.980;2023-07-16T12:29:23;5.65;;;2.20;;
50821;SDS011;36794;51.212;6.980;2023-07-16T12:31:49;5.88;;;2.20;;
50821;SDS011;36794;51.212;6.980;2023-07-16T12:34:15;4.10;;;2.17;;
50821;SDS011;36794;51.212;6.980;2023-07-16T12:36:41;5.55;;;2.30;;
50821;SDS011;36794;51.212;6.980;2023-07-16T12:39:07;6.25;;;2.58;;
50821;SDS011;36794;51.212;6.980;2023-07-16T12:41:33;6.20;;;2.65;;
50821;SDS011;36794;51.212;6.980;2023-07-16T12:43:59;5.35;;;2.42;;
50821;SDS011;36794;51.212;6.980;2023-07-16T12:46:25;8.55;;;2.47;;
50821;SDS011;36794;51.212;6.980;2023-07-16T12:48:51;5.43;;;2.42;;
50821;SDS011;36794;51.212;6.980;2023-07-16T12:51:17;7.13;;;3.03;;
50821;SDS011;36794;51.212;6.980;2023-07-16T12:53:43;5.53;;;2.90;;
50821;SDS011;36794;51.212;6.980;2023-07-16T12:56:09;5.05;;;2.58;;
50821;SDS011;36794;51.212;6.980;2023-07-16T12:58:35;7.95;;;2.50;;
50821;SDS011;36794;51.212;6.980;2023-07-16T13:01:01;4.95;;;2.60;;
50821;SDS011;36794;51.212;6.980;2023-07-16T13:03:27;4.97;;;2.58;;
50821;SDS011;36794;51.212;6.980;2023-07-16T13:05:53;5.07;;;2.30;;
50821;SDS011;36794;51.212;6.980;2023-07-16T13:08:19;5.88;;;1.95;;
50821;SDS011;36794;51.212;6.980;2023-07-16T13:10:45;5.55;;;2.30;;
50821;SDS011;36794;51.212;6.980;2023-07-16T13:13:11;4.13;;;2.28;;
50821;SDS011;36794;51.212;6.980;2023-07-16T13:15:37;7.55;;;2.55;;
50821;SDS011;36794;51.212;6.980;2023-07-16T13:18:03;4.53;;;2.35;;
50821;SDS011;36794;51.212;6.980;2023-07-16T13:20:29;4.03;;;1.90;;
50821;SDS011;36794;51.212;6.980;2023-07-16T13:22:55;6.78;;;2.42;;
50821;SDS011;36794;51.212;6.980;2023-07-16T13:25:21;7.78;;;2.17;;
50821;SDS011;36794;51.212;6.980;2023-07-16T13:27:48;6.13;;;2.78;;
50821;SDS011;36794;51.212;6.980;2023-07-16T13:30:14;9.48;;;2.53;;
50821;SDS011;36794;51.212;6.980;2023-07-16T13:32:40;4.82;;;1.90;;
50821;SDS011;36794;51.212;6.980;2023-07-16T13:35:06;5.97;;;2.20;;
50821;SDS011;36794;51.212;6.980;2023-07-16T13:37:32;10.25;;;2.22;;
50821;SDS011;36794;51.212;6.980;2023-07-16T13:39:58;7.22;;;2.30;;
50821;SDS011;36794;51.212;6.980;2023-07-16T13:42:24;5.00;;;2.17;;
50821;SDS011;36794;51.212;6.980;2023-07-16T13:44:50;4.47;;;2.17;;
50821;SDS011;36794;51.212;6.980;2023-07-16T13:47:16;4.00;;;1.98;;
50821;SDS011;36794;51.212;6.980;2023-07-16T13:49:42;4.10;;;2.00;;
50821;SDS011;36794;51.212;6.980;2023-07-16T13:52:08;5.75;;;2.10;;
50821;SDS011;36794;51.212;6.980;2023-07-16T13:54:33;6.70;;;2.22;;
50821;SDS011;36794;51.212;6.980;2023-07-16T13:56:59;6.88;;;1.88;;
50821;SDS011;36794;51.212;6.980;2023-07-16T13:59:25;5.10;;;2.22;;
50821;SDS011;36794;51.212;6.980;2023-07-16T14:02:01;5.38;;;2.00;;
50821;SDS011;36794;51.212;6.980;2023-07-16T14:04:28;7.13;;;2.20;;
50821;SDS011;36794;51.212;6.980;2023-07-16T14:06:54;5.72;;;2.38;;
50821;SDS011;36794;51.212;6.980;2023-07-16T14:09:20;4.45;;;1.90;;
50821;SDS011;36794;51.212;6.980;2023-07-16T14:11:46;4.00;;;1.85;;
50821;SDS011;36794;51.212;6.980;2023-07-16T14:14:16;8.15;;;2.30;;
50821;SDS011;36794;51.212;6.980;2023-07-16T14:16:42;7.47;;;2.25;;
50821;SDS011;36794;51.212;6.980;2023-07-16T14:19:09;6.15;;;2.40;;
50821;SDS011;36794;51.212;6.980;2023-07-16T14:21:37;6.10;;;2.28;;
50821;SDS011;36794;51.212;6.980;2023-07-16T14:24:03;5.80;;;2.03;;
50821;SDS011;36794;51.212;6.980;2023-07-16T14:26:29;6.80;;;2.40;;
50821;SDS011;36794;51.212;6.980;2023-07-16T14:28:55;7.05;;;2.53;;
50821;SDS011;36794;51.212;6.980;2023-07-16T14:31:21;7.57;;;2.35;;
50821;SDS011;36794;51.212;6.980;2023-07-16T14:33:47;4.78;;;2.05;;
50821;SDS011;36794;51.212;6.980;2023-07-16T14:36:13;6.20;;;2.33;;
50821;SDS011;36794;51.212;6.980;2023-07-16T14:38:39;5.88;;;2.17;;
50821;SDS011;36794;51.212;6.980;2023-07-16T14:41:05;6.68;;;1.95;;
50821;SDS011;36794;51.212;6.980;2023-07-16T14:43:33;5.20;;;2.10;;
50821;SDS011;36794;51.212;6.980;2023-07-16T14:45:59;4.53;;;1.70;;